Time,TemperatureF,DewpointF,PressureIn,WindDirection,WindDirectionDegrees,WindSpeedMPH,WindSpeedGustMPH,Humidity,HourlyPrecipIn,Conditions,Clouds,dailyrainin,SoftwareType,DateUTC
2013-02-14 00:11:00,37.0,29.0,-100.00,SW,215,14.0,14.0,72,-99.99,,,-99.99,,2013-02-14 06:11:00,
2013-02-14 00:21:00,37.0,29.0,-100.00,SW,215,14.0,14.0,72,-99.99,,,-99.99,,2013-02-14 06:21:00,
2013-02-14 00:32:00,37.0,29.0,-100.00,SW,215,14.0,14.0,72,-99.99,,,-99.99,,2013-02-14 06:32:00,
2013-02-14 00:42:00,37.0,29.0,-100.00,SW,220,14.0,16.0,73,-99.99,,,-99.99,,2013-02-14 06:42:00,
2013-02-14 00:52:00,37.0,29.0,-100.00,SW,220,14.0,16.0,73,-99.99,,,-99.99,,2013-02-14 06:52:00,
2013-02-14 01:01:00,37.0,29.0,-100.00,SW,220,14.0,16.0,73,-99.99,,,-99.99,,2013-02-14 07:01:00,
2013-02-14 01:11:00,36.0,29.0,-100.00,SW,215,16.0,18.0,77,-99.99,,,-99.99,,2013-02-14 07:11:00,
2013-02-14 01:21:00,36.0,29.0,-100.00,SW,215,16.0,18.0,77,-99.99,,,-99.99,,2013-02-14 07:21:00,
2013-02-14 01:42:00,37.0,31.0,-100.00,SW,215,16.0,17.0,79,-99.99,,,-99.99,,2013-02-14 07:42:00,
2013-02-14 01:52:00,37.0,31.0,-100.00,SSW,205,17.0,21.0,79,-99.99,,,-99.99,,2013-02-14 07:52:00,
2013-02-14 02:01:00,37.0,31.0,-100.00,SSW,205,17.0,21.0,79,-99.99,,,-99.99,,2013-02-14 08:01:00,
2013-02-14 02:11:00,37.0,31.0,-100.00,SSW,210,16.0,18.0,79,-99.99,,,-99.99,,2013-02-14 08:11:00,
2013-02-14 02:21:00,37.0,31.0,-100.00,SW,215,14.0,16.0,80,-99.99,,,-99.99,,2013-02-14 08:21:00,
2013-02-14 02:32:00,37.0,31.0,-100.00,SW,215,14.0,16.0,80,-99.99,,,-99.99,,2013-02-14 08:32:00,
2013-02-14 02:43:00,37.0,31.0,-100.00,SW,215,14.0,16.0,80,-99.99,,,-99.99,,2013-02-14 08:43:00,
2013-02-14 02:52:00,37.0,32.0,-100.00,SW,220,16.0,19.0,81,-99.99,,,-99.99,,2013-02-14 08:52:00,
2013-02-14 03:02:00,37.0,32.0,-100.00,SW,220,16.0,19.0,81,-99.99,,,-99.99,,2013-02-14 09:02:00,
2013-02-14 03:11:00,37.0,32.0,-100.00,SW,225,17.0,18.0,81,-99.99,,,-99.99,,2013-02-14 09:11:00,
2013-02-14 03:21:00,37.0,32.0,-100.00,SSW,210,17.0,19.0,82,-99.99,,,-99.99,,2013-02-14 09:21:00,
2013-02-14 03:32:00,37.0,32.0,-100.00,SSW,210,17.0,19.0,82,-99.99,,,-99.99,,2013-02-14 09:32:00,
2013-02-14 03:42:00,37.0,32.0,-100.00,SW,215,17.0,19.0,82,-99.99,,,-99.99,,2013-02-14 09:42:00,
2013-02-14 03:52:00,36.0,31.0,-100.00,SW,220,17.0,18.0,83,-99.99,,,-99.99,,2013-02-14 09:52:00,
2013-02-14 04:02:00,36.0,31.0,-100.00,SW,220,17.0,18.0,83,-99.99,,,-99.99,,2013-02-14 10:02:00,
2013-02-14 04:11:00,36.0,32.0,-100.00,SW,220,17.0,19.0,84,-99.99,,,-99.99,,2013-02-14 10:11:00,
2013-02-14 04:21:00,36.0,32.0,-100.00,SW,215,16.0,17.0,84,-99.99,,,-99.99,,2013-02-14 10:21:00,
2013-02-14 04:31:00,36.0,32.0,-100.00,SW,215,16.0,17.0,84,-99.99,,,-99.99,,2013-02-14 10:31:00,
2013-02-14 04:32:00,36.0,32.0,-100.00,SW,220,17.0,21.0,84,-99.99,,,-99.99,,2013-02-14 10:32:00,
2013-02-14 04:42:00,36.0,32.0,-100.00,SW,220,17.0,19.0,84,-99.99,,,-99.99,,2013-02-14 10:42:00,
2013-02-14 04:52:00,36.0,32.0,-100.00,SW,220,17.0,19.0,84,-99.99,,,-99.99,,2013-02-14 10:52:00,
2013-02-14 05:02:00,36.0,32.0,-100.00,SW,220,17.0,19.0,84,-99.99,,,-99.99,,2013-02-14 11:02:00,
2013-02-14 05:11:00,36.0,32.0,-100.00,SW,220,17.0,21.0,84,-99.99,,,-99.99,,2013-02-14 11:11:00,
2013-02-14 05:21:00,36.0,32.0,-100.00,SW,220,17.0,21.0,84,-99.99,,,-99.99,,2013-02-14 11:21:00,
2013-02-14 05:52:00,36.0,32.0,-100.00,SW,225,14.0,16.0,84,-99.99,,,-99.99,,2013-02-14 11:52:00,
2013-02-14 06:02:00,36.0,32.0,-100.00,SW,225,14.0,16.0,84,-99.99,,,-99.99,,2013-02-14 12:02:00,
2013-02-14 06:12:00,36.0,32.0,-100.00,SW,215,14.0,16.0,86,-99.99,,,-99.99,,2013-02-14 12:12:00,
2013-02-14 06:22:00,36.0,32.0,-100.00,SW,225,12.0,14.0,85,-99.99,,,-99.99,,2013-02-14 12:22:00,
2013-02-14 06:32:00,36.0,32.0,-100.00,SW,225,12.0,14.0,85,-99.99,,,-99.99,,2013-02-14 12:32:00,
2013-02-14 06:42:00,35.0,31.0,-100.00,SW,235,11.0,12.0,86,-99.99,,,-99.99,,2013-02-14 12:42:00,
2013-02-14 06:53:00,35.0,31.0,-100.00,SW,235,11.0,12.0,86,-99.99,,,-99.99,,2013-02-14 12:53:00,
2013-02-14 07:02:00,35.0,31.0,-100.00,SW,235,11.0,12.0,86,-99.99,,,-99.99,,2013-02-14 13:02:00,
2013-02-14 07:11:00,36.0,32.0,-100.00,SW,220,12.0,14.0,86,-99.99,,,-99.99,,2013-02-14 13:11:00,
2013-02-14 07:21:00,35.0,31.0,-100.00,SW,230,11.0,12.0,86,-99.99,,,-99.99,,2013-02-14 13:21:00,
2013-02-14 07:32:00,35.0,31.0,-100.00,SW,230,11.0,12.0,86,-99.99,,,-99.99,,2013-02-14 13:32:00,
2013-02-14 07:42:00,35.0,31.0,-100.00,SW,230,11.0,12.0,86,-99.99,,,-99.99,,2013-02-14 13:42:00,
2013-02-14 07:52:00,36.0,32.0,-100.00,WSW,240,14.0,16.0,84,-99.99,,,-99.99,,2013-02-14 13:52:00,
2013-02-14 08:01:00,36.0,32.0,-100.00,WSW,240,14.0,16.0,84,-99.99,,,-99.99,,2013-02-14 14:01:00,
2013-02-14 08:11:00,36.0,31.0,-100.00,WSW,250,14.0,17.0,83,-99.99,,,-99.99,,2013-02-14 14:11:00,
2013-02-14 08:21:00,37.0,32.0,-100.00,WSW,255,14.0,17.0,81,-99.99,,,-99.99,,2013-02-14 14:21:00,
2013-02-14 08:31:00,37.0,32.0,-100.00,WSW,255,14.0,17.0,81,-99.99,,,-99.99,,2013-02-14 14:31:00,
2013-02-14 08:41:00,37.0,32.0,-100.00,WSW,255,14.0,17.0,81,-99.99,,,-99.99,,2013-02-14 14:41:00,
2013-02-14 09:11:00,39.0,32.0,-100.00,West,265,16.0,18.0,76,-99.99,,,-99.99,,2013-02-14 15:11:00,
2013-02-14 09:21:00,40.0,32.0,-100.00,West,265,16.0,19.0,72,-99.99,,,-99.99,,2013-02-14 15:21:00,
2013-02-14 09:32:00,40.0,32.0,-100.00,West,265,16.0,19.0,72,-99.99,,,-99.99,,2013-02-14 15:32:00,
2013-02-14 09:42:00,42.0,31.0,-100.00,West,270,18.0,21.0,66,-99.99,,,-99.99,,2013-02-14 15:42:00,
2013-02-14 09:52:00,43.0,30.0,-100.00,WNW,285,21.0,25.0,61,-99.99,,,-99.99,,2013-02-14 15:52:00,
2013-02-14 10:02:00,43.0,30.0,-100.00,WNW,285,21.0,25.0,61,-99.99,,,-99.99,,2013-02-14 16:02:00,
2013-02-14 10:11:00,45.0,31.0,-100.00,WNW,290,18.0,23.0,58,-99.99,,,-99.99,,2013-02-14 16:11:00,
2013-02-14 10:21:00,45.0,30.0,-100.00,WNW,295,21.0,24.0,56,-99.99,,,-99.99,,2013-02-14 16:21:00,
2013-02-14 10:32:00,45.0,30.0,-100.00,WNW,295,21.0,24.0,56,-99.99,,,-99.99,,2013-02-14 16:32:00,
2013-02-14 10:41:00,45.0,30.0,-100.00,West,280,26.0,31.0,56,-99.99,,,-99.99,,2013-02-14 16:41:00,
2013-02-14 10:52:00,45.0,30.0,-100.00,West,280,26.0,31.0,56,-99.99,,,-99.99,,2013-02-14 16:52:00,
2013-02-14 11:01:00,45.0,30.0,-100.00,West,280,26.0,31.0,56,-99.99,,,-99.99,,2013-02-14 17:01:00,
2013-02-14 11:11:00,46.0,30.0,-100.00,West,280,23.0,29.0,54,-99.99,,,-99.99,,2013-02-14 17:11:00,
2013-02-14 11:21:00,46.0,30.0,-100.00,WNW,285,24.0,29.0,53,-99.99,,,-99.99,,2013-02-14 17:21:00,
2013-02-14 11:32:00,46.0,30.0,-100.00,WNW,285,24.0,29.0,53,-99.99,,,-99.99,,2013-02-14 17:32:00,
2013-02-14 11:42:00,46.0,30.0,-100.00,WNW,285,24.0,29.0,53,-99.99,,,-99.99,,2013-02-14 17:42:00,
2013-02-14 12:11:00,47.0,30.0,-100.00,WNW,300,21.0,25.0,51,-99.99,,,-99.99,,2013-02-14 18:11:00,
2013-02-14 12:23:00,48.0,31.0,-100.00,WNW,295,18.0,23.0,52,-99.99,,,-99.99,,2013-02-14 18:23:00,
2013-02-14 12:32:00,48.0,31.0,-100.00,WNW,295,18.0,23.0,52,-99.99,,,-99.99,,2013-02-14 18:32:00,
2013-02-14 12:42:00,48.0,31.0,-100.00,WNW,295,18.0,23.0,52,-99.99,,,-99.99,,2013-02-14 18:42:00,
2013-02-14 12:52:00,48.0,30.0,-100.00,NW,305,16.0,18.0,50,-99.99,,,-99.99,,2013-02-14 18:52:00,
2013-02-14 13:02:00,48.0,30.0,-100.00,NW,305,16.0,18.0,50,-99.99,,,-99.99,,2013-02-14 19:02:00,
2013-02-14 13:11:00,47.0,29.0,-100.00,WNW,290,21.0,23.0,49,-99.99,,,-99.99,,2013-02-14 19:11:00,
2013-02-14 13:21:00,47.0,29.0,-100.00,WNW,290,21.0,23.0,49,-99.99,,,-99.99,,2013-02-14 19:21:00,
2013-02-14 13:31:00,47.0,29.0,-100.00,WNW,290,21.0,23.0,49,-99.99,,,-99.99,,2013-02-14 19:31:00,
2013-02-14 13:42:00,48.0,29.0,-100.00,WNW,290,23.0,26.0,48,-99.99,,,-99.99,,2013-02-14 19:42:00,
2013-02-14 13:52:00,48.0,30.0,-100.00,WNW,300,19.0,26.0,49,-99.99,,,-99.99,,2013-02-14 19:52:00,
2013-02-14 14:01:00,48.0,30.0,-100.00,WNW,300,19.0,26.0,49,-99.99,,,-99.99,,2013-02-14 20:01:00,
2013-02-14 14:11:00,47.0,28.0,-100.00,WNW,295,21.0,26.0,48,-99.99,,,-99.99,,2013-02-14 20:11:00,
2013-02-14 14:21:00,49.0,29.0,-100.00,WNW,300,21.0,25.0,46,-99.99,,,-99.99,,2013-02-14 20:21:00,
2013-02-14 14:32:00,49.0,29.0,-100.00,WNW,300,21.0,25.0,46,-99.99,,,-99.99,,2013-02-14 20:32:00,
2013-02-14 14:42:00,49.0,29.0,-100.00,WNW,300,21.0,25.0,46,-99.99,,,-99.99,,2013-02-14 20:42:00,
2013-02-14 14:52:00,48.0,28.0,-100.00,NW,325,21.0,25.0,46,-99.99,,,-99.99,,2013-02-14 20:52:00,
2013-02-14 15:02:00,48.0,28.0,-100.00,NW,325,21.0,25.0,46,-99.99,,,-99.99,,2013-02-14 21:02:00,
2013-02-14 15:11:00,48.0,28.0,-100.00,NW,325,21.0,25.0,46,-99.99,,,-99.99,,2013-02-14 21:11:00,
2013-02-14 15:21:00,49.0,27.0,-100.00,NW,310,19.0,23.0,43,-99.99,,,-99.99,,2013-02-14 21:21:00,
2013-02-14 15:31:00,49.0,27.0,-100.00,NW,310,19.0,23.0,43,-99.99,,,-99.99,,2013-02-14 21:31:00,
2013-02-14 15:42:00,50.0,28.0,-100.00,NW,305,18.0,23.0,43,-99.99,,,-99.99,,2013-02-14 21:42:00,
2013-02-14 15:52:00,50.0,28.0,-100.00,WNW,300,16.0,18.0,43,-99.99,,,-99.99,,2013-02-14 21:52:00,
2013-02-14 16:02:00,50.0,28.0,-100.00,WNW,300,16.0,18.0,43,-99.99,,,-99.99,,2013-02-14 22:02:00,
2013-02-14 16:11:00,50.0,28.0,-100.00,WNW,295,17.0,21.0,43,-99.99,,,-99.99,,2013-02-14 22:11:00,
2013-02-14 16:21:00,48.0,28.0,-100.00,WNW,290,18.0,23.0,45,-99.99,,,-99.99,,2013-02-14 22:21:00,
2013-02-14 16:31:00,48.0,28.0,-100.00,WNW,290,18.0,23.0,45,-99.99,,,-99.99,,2013-02-14 22:31:00,
2013-02-14 16:42:00,48.0,28.0,-100.00,WNW,290,18.0,23.0,45,-99.99,,,-99.99,,2013-02-14 22:42:00,
2013-02-14 16:52:00,48.0,29.0,-100.00,NW,320,19.0,23.0,47,-99.99,,,-99.99,,2013-02-14 22:52:00,
2013-02-14 17:01:00,48.0,29.0,-100.00,NW,320,19.0,23.0,47,-99.99,,,-99.99,,2013-02-14 23:01:00,
2013-02-14 17:11:00,47.0,28.0,-100.00,NW,320,14.0,17.0,48,-99.99,,,-99.99,,2013-02-14 23:11:00,
2013-02-14 17:21:00,46.0,28.0,-100.00,NW,305,16.0,19.0,50,-99.99,,,-99.99,,2013-02-14 23:21:00,
2013-02-14 17:32:00,46.0,28.0,-100.00,NW,305,16.0,19.0,50,-99.99,,,-99.99,,2013-02-14 23:32:00,
2013-02-14 17:41:00,45.0,27.0,-100.00,NW,315,16.0,19.0,50,-99.99,,,-99.99,,2013-02-14 23:41:00,
2013-02-14 17:52:00,44.0,28.0,-100.00,NNW,330,16.0,18.0,53,-99.99,,,-99.99,,2013-02-14 23:52:00,
2013-02-14 18:01:00,44.0,28.0,-100.00,NNW,330,16.0,18.0,53,-99.99,,,-99.99,,2013-02-15 00:01:00,
2013-02-14 18:02:00,41.0,27.0,-100.00,NW,320,11.0,14.0,57,-99.99,,,-99.99,,2013-02-15 00:02:00,
2013-02-14 18:11:00,43.0,28.0,-100.00,NNW,330,16.0,21.0,55,-99.99,,,-99.99,,2013-02-15 00:11:00,
2013-02-14 18:22:00,42.0,27.0,-100.00,NNW,330,14.0,18.0,56,-99.99,,,-99.99,,2013-02-15 00:22:00,
2013-02-14 18:32:00,42.0,27.0,-100.00,NNW,330,14.0,18.0,56,-99.99,,,-99.99,,2013-02-15 00:32:00,
2013-02-14 18:42:00,41.0,27.0,-100.00,NW,320,11.0,14.0,57,-99.99,,,-99.99,,2013-02-15 00:42:00,
2013-02-14 18:52:00,41.0,27.0,-100.00,NW,320,11.0,14.0,57,-99.99,,,-99.99,,2013-02-15 00:52:00,
2013-02-14 19:21:00,39.0,27.0,-100.00,NNW,345,8.0,9.0,63,-99.99,,,-99.99,,2013-02-15 01:21:00,
2013-02-14 19:31:00,39.0,27.0,-100.00,NNW,345,8.0,9.0,63,-99.99,,,-99.99,,2013-02-15 01:31:00,
2013-02-14 19:41:00,39.0,27.0,-100.00,NNW,345,8.0,9.0,63,-99.99,,,-99.99,,2013-02-15 01:41:00,
2013-02-14 20:11:00,39.0,28.0,-100.00,ENE,75,3.0,4.0,64,-99.99,,,-99.99,,2013-02-15 02:11:00,
2013-02-14 20:21:00,39.0,28.0,-100.00,NE,50,1.0,3.0,64,-99.99,,,-99.99,,2013-02-15 02:21:00,
2013-02-14 20:31:00,39.0,28.0,-100.00,NE,35,1.0,2.0,64,-99.99,,,-99.99,,2013-02-15 02:31:00,
2013-02-14 20:41:00,39.0,28.0,-100.00,NE,35,1.0,2.0,64,-99.99,,,-99.99,,2013-02-15 02:41:00,
2013-02-14 20:52:00,39.0,28.0,-100.00,NE,35,1.0,2.0,64,-99.99,,,-99.99,,2013-02-15 02:52:00,
2013-02-14 21:02:00,39.0,27.0,-100.00,ENE,65,1.0,2.0,63,-99.99,,,-99.99,,2013-02-15 03:02:00,
2013-02-14 21:11:00,39.0,28.0,-100.00,ESE,120,0.0,2.0,64,-99.99,,,-99.99,,2013-02-15 03:11:00,
2013-02-14 21:22:00,39.0,28.0,-100.00,ESE,120,0.0,2.0,64,-99.99,,,-99.99,,2013-02-15 03:22:00,
2013-02-14 21:32:00,39.0,28.0,-100.00,ESE,120,0.0,2.0,64,-99.99,,,-99.99,,2013-02-15 03:32:00,
2013-02-14 21:42:00,37.0,28.0,-100.00,SSE,160,3.0,6.0,70,-99.99,,,-99.99,,2013-02-15 03:42:00,
2013-02-14 21:52:00,36.0,28.0,-100.00,South,180,3.0,3.0,73,-99.99,,,-99.99,,2013-02-15 03:52:00,
2013-02-14 22:01:00,36.0,28.0,-100.00,South,180,3.0,3.0,73,-99.99,,,-99.99,,2013-02-15 04:01:00,
2013-02-14 22:02:00,35.0,29.0,-100.00,NW,310,1.0,2.0,80,-99.99,,,-99.99,,2013-02-15 04:02:00,
2013-02-14 22:11:00,35.0,28.0,-100.00,WSW,245,4.0,6.0,76,-99.99,,,-99.99,,2013-02-15 04:11:00,
2013-02-14 22:21:00,35.0,29.0,-100.00,NW,310,3.0,4.0,79,-99.99,,,-99.99,,2013-02-15 04:21:00,
2013-02-14 22:32:00,35.0,29.0,-100.00,NW,310,3.0,4.0,79,-99.99,,,-99.99,,2013-02-15 04:32:00,
2013-02-14 22:42:00,35.0,29.0,-100.00,NW,310,1.0,2.0,80,-99.99,,,-99.99,,2013-02-15 04:42:00,
2013-02-14 22:52:00,35.0,29.0,-100.00,NW,310,1.0,2.0,80,-99.99,,,-99.99,,2013-02-15 04:52:00,
2013-02-14 23:12:00,35.0,31.0,-100.00,SW,235,4.0,6.0,84,-99.99,,,-99.99,,2013-02-15 05:12:00,
2013-02-14 23:22:00,35.0,31.0,-100.00,SW,235,4.0,6.0,84,-99.99,,,-99.99,,2013-02-15 05:22:00,
2013-02-14 23:42:00,35.0,32.0,-100.00,WSW,255,4.0,4.0,87,-99.99,,,-99.99,,2013-02-15 05:42:00,
2013-02-14 23:52:00,35.0,32.0,-100.00,WSW,245,6.0,8.0,88,-99.99,,,-99.99,,2013-02-15 05:52:00,